createdAt,value
2018-08-11T00:00:15.250Z,16.40
2018-08-11T00:02:43.541Z,16.30
2018-08-11T00:05:11.841Z,16.20
2018-08-11T00:07:40.096Z,16.20
2018-08-11T00:10:08.965Z,16.20
2018-08-11T00:12:37.527Z,16.30
2018-08-11T00:15:08.089Z,16.30
2018-08-11T00:17:36.387Z,16.10
2018-08-11T00:20:07.592Z,16.00
2018-08-11T00:22:35.872Z,16.00
2018-08-11T00:25:04.764Z,16.00
2018-08-11T00:27:33.057Z,16.00
2018-08-11T00:30:02.852Z,15.90
2018-08-11T00:32:31.253Z,15.90
2018-08-11T00:35:00.367Z,15.90
2018-08-11T00:37:28.625Z,15.90
2018-08-11T00:39:56.898Z,16.00
2018-08-11T00:42:25.163Z,16.00
2018-08-11T00:44:53.424Z,16.00
2018-08-11T00:47:21.705Z,16.00
2018-08-11T00:49:49.953Z,16.00
2018-08-11T00:52:18.215Z,16.10
2018-08-11T00:54:46.479Z,16.00
2018-08-11T00:57:14.755Z,15.90
2018-08-11T00:59:43.017Z,15.90
2018-08-11T01:02:11.255Z,15.80
2018-08-11T01:04:39.483Z,15.80
2018-08-11T01:07:07.743Z,15.90
2018-08-11T01:09:35.933Z,15.90
2018-08-11T01:12:04.371Z,15.90
2018-08-11T01:14:32.671Z,16.00
2018-08-11T01:17:00.902Z,16.00
2018-08-11T01:19:29.135Z,16.10
2018-08-11T01:21:57.614Z,16.00
2018-08-11T01:24:25.877Z,16.00
2018-08-11T01:26:54.111Z,16.10
2018-08-11T01:29:22.408Z,16.10
2018-08-11T01:31:50.639Z,16.10
2018-08-11T01:34:18.878Z,16.10
2018-08-11T01:36:47.089Z,16.00
2018-08-11T01:39:15.468Z,16.00
2018-08-11T01:41:43.673Z,15.90
2018-08-11T01:44:11.927Z,15.90
2018-08-11T01:46:40.195Z,15.90
2018-08-11T01:49:08.395Z,15.90
2018-08-11T01:51:36.646Z,15.80
2018-08-11T01:54:04.923Z,15.80
2018-08-11T01:56:33.157Z,15.70
2018-08-11T01:59:01.382Z,15.70
2018-08-11T02:01:29.621Z,15.70
2018-08-11T02:03:57.838Z,15.70
2018-08-11T02:06:26.129Z,15.70
2018-08-11T02:08:54.691Z,15.70
2018-08-11T02:11:22.984Z,15.60
2018-08-11T02:13:51.204Z,15.50
2018-08-11T02:16:19.482Z,15.50
2018-08-11T02:18:47.762Z,15.40
2018-08-11T02:21:16.122Z,15.50
2018-08-11T02:23:44.434Z,15.50
2018-08-11T02:26:12.736Z,15.50
2018-08-11T02:28:41.021Z,15.50
2018-08-11T02:31:09.288Z,15.50
2018-08-11T02:33:37.502Z,15.50
2018-08-11T02:36:05.746Z,15.50
2018-08-11T02:38:34.018Z,15.40
2018-08-11T02:41:02.277Z,15.50
2018-08-11T02:43:30.673Z,15.50
2018-08-11T02:45:58.938Z,15.50
2018-08-11T02:48:27.261Z,15.40
2018-08-11T02:50:55.498Z,15.50
2018-08-11T02:53:23.748Z,15.50
2018-08-11T02:55:52.004Z,15.50
2018-08-11T02:58:20.239Z,15.40
2018-08-11T03:00:48.495Z,15.40
2018-08-11T03:03:16.763Z,15.40
2018-08-11T03:05:46.144Z,15.40
2018-08-11T03:08:14.366Z,15.40
2018-08-11T03:10:42.614Z,15.40
2018-08-11T03:13:10.880Z,15.50
2018-08-11T03:15:39.151Z,15.50
2018-08-11T03:18:07.361Z,15.50
2018-08-11T03:20:35.577Z,15.50
2018-08-11T03:23:03.830Z,15.40
2018-08-11T03:25:32.051Z,15.40
2018-08-11T03:28:00.251Z,15.50
2018-08-11T03:30:28.498Z,15.50
2018-08-11T03:32:56.696Z,15.50
2018-08-11T03:35:25.327Z,15.60
2018-08-11T03:37:53.565Z,15.60
2018-08-11T03:40:24.470Z,15.60
2018-08-11T03:42:52.886Z,15.70
2018-08-11T03:45:21.138Z,15.70
2018-08-11T03:47:49.362Z,15.70
2018-08-11T03:50:17.654Z,15.80
2018-08-11T03:52:45.850Z,15.70
2018-08-11T03:55:14.087Z,15.80
2018-08-11T03:57:42.347Z,15.80
2018-08-11T04:00:11.637Z,15.80
2018-08-11T04:02:39.999Z,15.80
2018-08-11T04:05:08.256Z,15.80
2018-08-11T04:07:36.486Z,15.80
2018-08-11T04:10:05.838Z,15.80
2018-08-11T04:12:34.041Z,15.80
2018-08-11T04:15:02.333Z,15.70
2018-08-11T04:17:36.716Z,15.60
2018-08-11T04:20:05.110Z,15.60
2018-08-11T04:22:33.379Z,15.60
2018-08-11T04:25:01.725Z,15.60
2018-08-11T04:27:29.963Z,15.60
2018-08-11T04:29:58.198Z,15.50
2018-08-11T04:32:26.803Z,15.50
2018-08-11T04:34:56.023Z,15.60
2018-08-11T04:37:24.339Z,15.60
2018-08-11T04:39:52.575Z,15.60
2018-08-11T04:42:21.036Z,15.60
2018-08-11T04:44:49.253Z,15.60
2018-08-11T04:47:17.569Z,15.60
2018-08-11T04:49:45.818Z,15.70
2018-08-11T04:52:14.049Z,15.70
2018-08-11T04:54:42.350Z,15.80
2018-08-11T04:57:10.614Z,15.90
2018-08-11T04:59:38.848Z,15.90
2018-08-11T05:02:07.225Z,15.90
2018-08-11T05:04:35.560Z,15.90
2018-08-11T05:07:03.811Z,15.90
2018-08-11T05:09:32.095Z,16.00
2018-08-11T05:12:00.308Z,16.00
2018-08-11T05:14:28.554Z,15.90
2018-08-11T05:16:56.811Z,15.90
2018-08-11T05:19:25.099Z,16.00
2018-08-11T05:21:53.431Z,16.10
2018-08-11T05:24:21.946Z,16.10
2018-08-11T05:26:50.183Z,16.20
2018-08-11T05:29:18.395Z,16.30
2018-08-11T05:31:46.614Z,16.40
2018-08-11T05:34:14.826Z,16.50
2018-08-11T05:36:43.076Z,16.60
2018-08-11T05:39:13.325Z,16.70
2018-08-11T05:41:41.605Z,16.80
2018-08-11T05:44:09.856Z,17.00
2018-08-11T05:46:38.739Z,17.10
2018-08-11T05:49:07.366Z,17.20
2018-08-11T05:51:35.589Z,17.50
2018-08-11T05:54:03.882Z,17.80
2018-08-11T05:56:32.097Z,18.10
2018-08-11T05:59:00.503Z,18.50
2018-08-11T06:01:28.952Z,18.70
2018-08-11T06:03:57.182Z,18.90
2018-08-11T06:06:25.373Z,19.00
2018-08-11T06:08:53.593Z,19.00
2018-08-11T06:11:21.793Z,19.30
2018-08-11T06:13:50.049Z,19.60
2018-08-11T06:16:18.298Z,19.90
2018-08-11T06:18:46.502Z,20.30
2018-08-11T06:21:14.761Z,20.60
2018-08-11T06:23:42.950Z,20.90
2018-08-11T06:26:11.222Z,21.10
2018-08-11T06:28:39.418Z,21.40
2018-08-11T06:31:07.751Z,21.50
2018-08-11T06:33:36.051Z,21.70
2018-08-11T06:36:04.409Z,22.00
2018-08-11T06:38:32.725Z,22.20
2018-08-11T06:41:01.201Z,22.50
2018-08-11T06:43:29.256Z,22.90
2018-08-11T06:45:57.511Z,23.30
2018-08-11T06:48:26.740Z,23.70
2018-08-11T06:50:55.059Z,23.70
2018-08-11T06:53:23.309Z,23.70
2018-08-11T06:55:51.702Z,23.50
2018-08-11T06:58:19.958Z,23.50
2018-08-11T07:00:48.188Z,23.50
2018-08-11T07:03:16.414Z,23.60
2018-08-11T07:05:44.661Z,23.30
2018-08-11T07:08:12.877Z,23.10
2018-08-11T07:10:41.090Z,23.00
2018-08-11T07:13:09.442Z,22.80
2018-08-11T07:15:37.687Z,22.60
2018-08-11T07:18:05.893Z,22.60
2018-08-11T07:20:34.143Z,22.70
2018-08-11T07:23:02.390Z,22.70
2018-08-11T07:25:30.640Z,22.40
2018-08-11T07:27:58.892Z,22.30
2018-08-11T07:30:27.139Z,22.00
2018-08-11T07:32:55.682Z,21.80
2018-08-11T07:35:23.931Z,21.60
2018-08-11T07:37:52.723Z,21.60
2018-08-11T07:40:21.687Z,21.90
2018-08-11T07:42:49.906Z,22.30
2018-08-11T07:45:18.140Z,22.70
2018-08-11T07:47:46.386Z,22.90
2018-08-11T07:50:14.710Z,23.40
2018-08-11T07:52:43.005Z,23.60
2018-08-11T07:55:11.314Z,23.50
2018-08-11T07:57:39.582Z,23.40
2018-08-11T08:00:12.005Z,23.60
2018-08-11T08:02:40.973Z,23.80
2018-08-11T08:05:09.286Z,24.30
2018-08-11T08:07:37.523Z,24.50
2018-08-11T08:10:06.670Z,24.70
2018-08-11T08:12:35.006Z,25.00
2018-08-11T08:15:03.277Z,25.20
2018-08-11T08:17:31.567Z,25.30
2018-08-11T08:19:59.830Z,25.60
2018-08-11T08:22:28.155Z,25.60
2018-08-11T08:24:56.441Z,25.40
2018-08-11T08:27:24.778Z,25.70
2018-08-11T08:29:53.339Z,26.00
2018-08-11T08:32:21.563Z,26.10
2018-08-11T08:34:49.839Z,26.30
2018-08-11T08:37:19.410Z,26.30
2018-08-11T08:39:47.621Z,26.10
2018-08-11T08:42:15.950Z,26.10
2018-08-11T08:44:44.318Z,26.20
2018-08-11T08:47:12.549Z,26.40
2018-08-11T08:49:40.776Z,26.80
2018-08-11T08:52:09.003Z,27.10
2018-08-11T08:54:37.222Z,27.20
2018-08-11T08:57:05.744Z,27.40
2018-08-11T08:59:33.982Z,27.60
2018-08-11T09:02:02.281Z,27.60
2018-08-11T09:04:30.483Z,27.60
2018-08-11T09:06:58.758Z,27.70
2018-08-11T09:09:27.057Z,27.40
2018-08-11T09:11:55.317Z,27.30
2018-08-11T09:14:23.637Z,27.40
2018-08-11T09:16:51.866Z,27.50
2018-08-11T09:19:20.138Z,27.60
2018-08-11T09:21:48.327Z,27.60
2018-08-11T09:24:16.586Z,27.60
2018-08-11T09:26:44.882Z,27.50
2018-08-11T09:29:13.142Z,27.40
2018-08-11T09:31:41.514Z,27.40
2018-08-11T09:34:09.795Z,27.40
2018-08-11T09:36:38.034Z,27.70
2018-08-11T09:39:10.664Z,28.00
2018-08-11T09:41:38.846Z,27.90
2018-08-11T09:44:07.627Z,28.10
2018-08-11T09:46:35.830Z,28.10
2018-08-11T09:49:04.283Z,27.70
2018-08-11T09:51:32.949Z,27.40
2018-08-11T09:54:01.225Z,27.30
2018-08-11T09:56:29.449Z,27.50
2018-08-11T09:58:57.646Z,27.80
2018-08-11T10:01:31.398Z,27.80
2018-08-11T10:03:59.633Z,27.50
2018-08-11T10:06:27.898Z,27.40
2018-08-11T10:08:56.175Z,27.20
2018-08-11T10:11:25.773Z,27.10
2018-08-11T10:13:54.205Z,27.20
2018-08-11T10:16:22.461Z,27.20
2018-08-11T10:18:50.766Z,27.00
2018-08-11T10:21:19.013Z,27.20
2018-08-11T10:23:47.321Z,27.50
2018-08-11T10:26:15.625Z,27.60
2018-08-11T10:28:43.863Z,27.60
2018-08-11T10:31:12.242Z,27.60
2018-08-11T10:33:40.500Z,27.60
2018-08-11T10:36:08.719Z,27.50
2018-08-11T10:38:36.994Z,27.70
2018-08-11T10:41:05.353Z,27.40
2018-08-11T10:43:34.451Z,27.50
2018-08-11T10:46:02.643Z,27.30
2018-08-11T10:48:30.870Z,26.90
2018-08-11T10:50:59.092Z,26.80
2018-08-11T10:53:27.685Z,26.70
2018-08-11T10:55:55.942Z,26.70
2018-08-11T10:58:24.907Z,26.70
2018-08-11T11:00:53.118Z,26.30
2018-08-11T11:03:21.331Z,26.10
2018-08-11T11:05:49.574Z,25.70
2018-08-11T11:08:17.847Z,25.70
2018-08-11T11:10:46.034Z,25.90
2018-08-11T11:13:14.315Z,25.90
2018-08-11T11:15:42.673Z,25.90
2018-08-11T11:18:10.970Z,25.80
2018-08-11T11:20:39.246Z,25.70
2018-08-11T11:23:07.549Z,25.50
2018-08-11T11:25:35.775Z,25.50
2018-08-11T11:28:03.954Z,25.30
2018-08-11T11:30:32.187Z,25.30
2018-08-11T11:33:00.460Z,25.40
2018-08-11T11:35:28.965Z,25.20
2018-08-11T11:37:57.226Z,25.20
2018-08-11T11:40:25.482Z,25.30
2018-08-11T11:42:53.725Z,25.30
2018-08-11T11:45:22.077Z,25.30
2018-08-11T11:47:50.281Z,25.20
2018-08-11T11:50:18.496Z,25.20
2018-08-11T11:52:46.752Z,25.10
2018-08-11T11:55:14.934Z,25.10
2018-08-11T11:57:43.256Z,25.10
2018-08-11T12:00:12.074Z,25.10
2018-08-11T12:02:40.337Z,25.00
2018-08-11T12:05:08.506Z,25.00
2018-08-11T12:07:36.818Z,25.10
2018-08-11T12:10:05.174Z,25.10
2018-08-11T12:12:33.397Z,25.20
2018-08-11T12:15:01.710Z,25.30
2018-08-11T12:17:29.910Z,25.40
2018-08-11T12:19:58.227Z,25.50
2018-08-11T12:22:26.501Z,25.70
2018-08-11T12:24:54.774Z,25.90
2018-08-11T12:27:23.097Z,25.90
2018-08-11T12:29:51.493Z,25.90
2018-08-11T12:32:19.711Z,25.80
2018-08-11T12:34:47.965Z,25.80
2018-08-11T12:37:16.234Z,25.90
2018-08-11T12:39:44.442Z,25.90
2018-08-11T12:42:12.868Z,26.00
2018-08-11T12:44:41.178Z,25.90
2018-08-11T12:47:09.443Z,25.80
2018-08-11T12:49:37.765Z,25.70
2018-08-11T12:52:06.248Z,25.70
2018-08-11T12:54:34.613Z,25.50
2018-08-11T12:57:02.962Z,25.40
2018-08-11T12:59:31.287Z,25.40
2018-08-11T13:01:59.530Z,25.30
2018-08-11T13:04:27.759Z,25.30
2018-08-11T13:06:56.049Z,25.20
2018-08-11T13:09:25.543Z,25.20
2018-08-11T13:11:54.609Z,25.00
2018-08-11T13:14:22.905Z,24.90
2018-08-11T13:16:51.170Z,24.90
2018-08-11T13:19:19.423Z,24.90
2018-08-11T13:21:47.865Z,24.80
2018-08-11T13:24:16.172Z,25.00
2018-08-11T13:26:44.419Z,25.00
2018-08-11T13:29:12.771Z,25.00
2018-08-11T13:31:41.011Z,25.00
2018-08-11T13:34:09.532Z,25.10
2018-08-11T13:36:37.762Z,25.10
2018-08-11T13:39:08.258Z,25.10
2018-08-11T13:41:46.439Z,24.90
2018-08-11T13:44:15.714Z,24.90
2018-08-11T13:46:43.988Z,24.90
2018-08-11T13:49:12.242Z,24.90
2018-08-11T13:51:40.522Z,25.00
2018-08-11T13:54:08.781Z,25.10
2018-08-11T13:56:37.961Z,25.20
2018-08-11T13:59:06.231Z,25.20
2018-08-11T14:01:34.553Z,25.20
2018-08-11T14:04:02.788Z,25.30
2018-08-11T14:06:31.088Z,25.30
2018-08-11T14:08:59.398Z,25.30
2018-08-11T14:11:27.664Z,25.40
2018-08-11T14:13:55.909Z,25.40
2018-08-11T14:16:24.201Z,25.40
2018-08-11T14:18:52.482Z,25.60
2018-08-11T14:21:20.723Z,25.70
2018-08-11T14:23:49.053Z,25.90
2018-08-11T14:26:17.298Z,25.90
2018-08-11T14:28:45.680Z,26.00
2018-08-11T14:31:13.950Z,26.00
2018-08-11T14:33:42.243Z,26.00
2018-08-11T14:36:10.481Z,25.90
2018-08-11T14:38:38.700Z,25.90
2018-08-11T14:41:06.936Z,25.90
2018-08-11T14:43:35.717Z,25.90
2018-08-11T14:46:03.915Z,25.90
2018-08-11T14:51:06.749Z,25.50
2018-08-11T14:53:35.327Z,25.30
2018-08-11T14:56:03.662Z,25.20
2018-08-11T14:58:32.035Z,25.20
2018-08-11T15:01:00.285Z,25.20
2018-08-11T15:03:29.167Z,25.20
2018-08-11T15:05:57.377Z,25.20
2018-08-11T15:08:25.714Z,25.10
2018-08-11T15:10:53.918Z,25.10
2018-08-11T15:13:22.141Z,25.20
2018-08-11T15:15:51.837Z,25.10
2018-08-11T15:18:20.003Z,25.10
2018-08-11T15:20:48.202Z,25.00
2018-08-11T15:23:16.708Z,25.00
2018-08-11T15:25:44.909Z,24.90
2018-08-11T15:28:13.156Z,25.00
2018-08-11T15:30:41.386Z,25.00
2018-08-11T15:33:09.675Z,25.00
2018-08-11T15:35:37.854Z,25.10
2018-08-11T15:38:06.107Z,25.20
2018-08-11T15:40:34.296Z,25.20
2018-08-11T15:43:02.536Z,25.20
2018-08-11T15:45:30.726Z,25.20
2018-08-11T15:47:58.932Z,25.10
2018-08-11T15:50:27.194Z,25.00
2018-08-11T15:52:55.407Z,25.00
2018-08-11T15:55:23.653Z,24.90
2018-08-11T15:57:51.929Z,24.80
2018-08-11T16:00:20.155Z,24.80
2018-08-11T16:02:48.633Z,24.80
2018-08-11T16:05:16.896Z,24.80
2018-08-11T16:07:45.091Z,24.70
2018-08-11T16:10:13.338Z,24.70
2018-08-11T16:12:41.638Z,24.70
2018-08-11T16:15:11.487Z,24.70
2018-08-11T16:17:39.710Z,24.60
2018-08-11T16:20:07.998Z,24.60
2018-08-11T16:22:36.305Z,24.70
2018-08-11T16:25:04.756Z,24.70
2018-08-11T16:27:33.042Z,24.80
2018-08-11T16:30:01.243Z,24.80
2018-08-11T16:32:29.517Z,24.80
2018-08-11T16:34:57.757Z,24.80
2018-08-11T16:37:25.999Z,24.70
2018-08-11T16:39:54.262Z,24.70
2018-08-11T16:42:22.501Z,24.70
2018-08-11T16:44:50.716Z,24.60
2018-08-11T16:47:18.944Z,24.60
2018-08-11T16:49:47.319Z,24.50
2018-08-11T16:52:15.621Z,24.50
2018-08-11T16:54:43.821Z,24.50
2018-08-11T16:57:12.174Z,24.50
2018-08-11T16:59:40.467Z,24.40
2018-08-11T17:02:08.791Z,24.20
2018-08-11T17:04:36.981Z,24.20
2018-08-11T17:07:05.302Z,24.20
2018-08-11T17:09:33.628Z,24.20
2018-08-11T17:12:02.111Z,24.20
2018-08-11T17:14:30.377Z,24.20
2018-08-11T17:16:58.572Z,24.20
2018-08-11T17:19:26.855Z,24.20
2018-08-11T17:21:55.199Z,24.20
2018-08-11T17:24:23.414Z,24.20
2018-08-11T17:26:51.624Z,24.20
2018-08-11T17:29:20.041Z,24.20
2018-08-11T17:31:48.315Z,24.20
2018-08-11T17:34:16.559Z,24.10
2018-08-11T17:36:44.886Z,24.10
2018-08-11T17:39:13.256Z,24.10
2018-08-11T17:41:41.740Z,24.00
2018-08-11T17:44:10.114Z,24.00
2018-08-11T17:46:38.370Z,24.00
2018-08-11T17:49:06.601Z,23.90
2018-08-11T17:51:35.392Z,23.90
2018-08-11T17:54:03.678Z,23.80
2018-08-11T17:56:31.994Z,23.80
2018-08-11T17:59:00.308Z,23.80
2018-08-11T18:01:28.577Z,23.70
2018-08-11T18:03:56.829Z,23.70
2018-08-11T18:06:25.104Z,23.60
2018-08-11T18:08:53.355Z,23.60
2018-08-11T18:11:21.601Z,23.60
2018-08-11T18:13:49.844Z,23.50
2018-08-11T18:16:18.156Z,23.50
2018-08-11T18:18:46.431Z,23.50
2018-08-11T18:21:14.723Z,23.40
2018-08-11T18:23:42.976Z,23.30
2018-08-11T18:26:11.276Z,23.30
2018-08-11T18:28:39.538Z,23.30
2018-08-11T18:31:07.814Z,23.20
2018-08-11T18:33:36.099Z,23.20
2018-08-11T18:36:04.472Z,23.10
2018-08-11T18:38:32.921Z,23.10
2018-08-11T18:41:01.301Z,23.10
2018-08-11T18:43:30.663Z,23.00
2018-08-11T18:45:58.999Z,23.00
2018-08-11T18:48:27.271Z,23.00
2018-08-11T18:50:55.574Z,22.90
2018-08-11T18:53:23.821Z,22.80
2018-08-11T18:55:52.148Z,22.70
2018-08-11T18:58:20.684Z,22.70
2018-08-11T19:00:49.001Z,22.70
2018-08-11T19:03:17.283Z,22.60
2018-08-11T19:05:45.574Z,22.60
2018-08-11T19:08:13.812Z,22.50
2018-08-11T19:10:42.144Z,22.40
2018-08-11T19:13:10.522Z,22.40
2018-08-11T19:15:38.670Z,22.40
2018-08-11T19:18:07.515Z,22.30
2018-08-11T19:20:35.787Z,22.10
2018-08-11T19:23:04.100Z,22.00
2018-08-11T19:25:32.428Z,21.90
2018-08-11T19:28:00.762Z,21.80
2018-08-11T19:30:29.073Z,21.70
2018-08-11T19:32:58.439Z,21.60
2018-08-11T19:35:26.707Z,21.50
2018-08-11T19:37:54.994Z,21.50
2018-08-11T19:40:23.239Z,21.40
2018-08-11T19:42:51.563Z,21.30
2018-08-11T19:45:19.962Z,21.20
2018-08-11T19:47:48.200Z,21.10
2018-08-11T19:50:16.464Z,21.10
2018-08-11T19:52:44.703Z,21.00
2018-08-11T19:55:12.986Z,20.90
2018-08-11T19:57:42.331Z,20.70
2018-08-11T20:00:12.859Z,20.70
2018-08-11T20:02:42.561Z,20.70
2018-08-11T20:05:11.422Z,20.70
2018-08-11T20:07:40.455Z,20.70
2018-08-11T20:10:08.838Z,20.70
2018-08-11T20:12:37.773Z,20.70
2018-08-11T20:15:07.274Z,20.80
2018-08-11T20:17:35.594Z,20.80
2018-08-11T20:20:04.787Z,20.90
2018-08-11T20:22:33.103Z,20.90
2018-08-11T20:25:01.363Z,20.90
2018-08-11T20:27:29.633Z,20.80
2018-08-11T20:29:57.895Z,20.80
2018-08-11T20:32:26.186Z,20.80
2018-08-11T20:34:54.466Z,20.80
2018-08-11T20:37:22.715Z,20.70
2018-08-11T20:39:51.037Z,20.70
2018-08-11T20:42:19.271Z,20.60
2018-08-11T20:44:47.547Z,20.40
2018-08-11T20:47:15.882Z,20.40
2018-08-11T20:49:44.325Z,20.40
2018-08-11T20:52:12.617Z,20.30
2018-08-11T20:54:41.006Z,20.20
2018-08-11T20:57:09.279Z,20.10
2018-08-11T20:59:37.557Z,20.00
2018-08-11T21:02:06.541Z,19.90
2018-08-11T21:04:34.816Z,19.90
2018-08-11T21:07:03.094Z,19.90
2018-08-11T21:09:31.347Z,19.90
2018-08-11T21:11:59.612Z,19.80
2018-08-11T21:14:27.901Z,19.80
2018-08-11T21:16:56.180Z,19.70
2018-08-11T21:19:24.493Z,19.70
2018-08-11T21:21:52.729Z,19.60
2018-08-11T21:24:21.005Z,19.50
2018-08-11T21:26:49.217Z,19.40
2018-08-11T21:29:17.436Z,19.30
2018-08-11T21:31:45.671Z,19.20
2018-08-11T21:34:13.886Z,19.10
2018-08-11T21:36:42.182Z,19.00
2018-08-11T21:39:13.132Z,18.90
2018-08-11T21:41:41.446Z,18.80
2018-08-11T21:44:09.711Z,18.70
2018-08-11T21:46:38.468Z,18.70
2018-08-11T21:49:07.851Z,18.60
2018-08-11T21:51:36.037Z,18.70
2018-08-11T21:54:04.352Z,18.60
2018-08-11T21:56:32.685Z,18.60
2018-08-11T21:59:00.952Z,18.60
2018-08-11T22:01:29.177Z,18.50
2018-08-11T22:03:57.554Z,18.50
2018-08-11T22:06:25.885Z,18.50
2018-08-11T22:08:54.103Z,18.50
2018-08-11T22:11:22.363Z,18.40
2018-08-11T22:13:50.606Z,18.40
2018-08-11T22:16:18.845Z,18.30
2018-08-11T22:18:47.155Z,18.20
2018-08-11T22:21:15.553Z,18.30
2018-08-11T22:23:43.768Z,18.30
2018-08-11T22:26:12.105Z,18.30
2018-08-11T22:28:40.660Z,18.30
2018-08-11T22:31:08.914Z,18.40
2018-08-11T22:33:37.183Z,18.50
2018-08-11T22:36:05.490Z,18.50
2018-08-11T22:38:33.748Z,18.60
2018-08-11T22:41:01.988Z,18.60
2018-08-11T22:43:30.325Z,18.60
2018-08-11T22:45:58.634Z,18.60
2018-08-11T22:48:26.951Z,18.70
2018-08-11T22:50:55.184Z,18.70
2018-08-11T22:53:23.400Z,18.60
2018-08-11T22:55:51.666Z,18.70
2018-08-11T22:58:19.929Z,18.60
2018-08-11T23:00:48.242Z,18.60
2018-08-11T23:03:16.537Z,18.50
2018-08-11T23:05:44.802Z,18.30
2018-08-11T23:08:13.022Z,18.10
2018-08-11T23:10:41.286Z,18.00
2018-08-11T23:13:09.603Z,17.70
2018-08-11T23:15:37.854Z,17.50
2018-08-11T23:18:06.140Z,17.40
2018-08-11T23:20:34.397Z,17.30
2018-08-11T23:23:02.684Z,17.20
2018-08-11T23:25:30.918Z,17.20
2018-08-11T23:27:59.194Z,17.20
2018-08-11T23:30:27.396Z,17.10
2018-08-11T23:32:55.626Z,17.10
2018-08-11T23:35:23.852Z,17.10
2018-08-11T23:37:52.088Z,17.10
2018-08-11T23:40:20.326Z,17.10
2018-08-11T23:42:48.621Z,17.20
2018-08-11T23:45:17.035Z,17.30
2018-08-11T23:47:45.238Z,17.30
2018-08-11T23:50:14.376Z,17.30
2018-08-11T23:52:43.400Z,17.20
2018-08-11T23:55:12.773Z,17.20
2018-08-11T23:57:41.071Z,17.20
